sensor_id;sensor_type;location;lat;lon;timestamp;pressure;altitude;pressure_sealevel;temperature;humidity
63607;BME280;71992;52.478;-1.918;2024-01-25T00:01:19;100989.03;;;5.67;100.00
63607;BME280;71992;52.478;-1.918;2024-01-25T00:03:52;100992.59;;;5.66;100.00
63607;BME280;71992;52.478;-1.918;2024-01-25T00:06:23;100999.59;;;5.69;100.00
63607;BME280;71992;52.478;-1.918;2024-01-25T00:08:56;101008.41;;;5.69;100.00
63607;BME280;71992;52.478;-1.918;2024-01-25T00:11:28;101013.81;;;5.64;100.00
63607;BME280;71992;52.478;-1.918;2024-01-25T00:14:00;101016.69;;;5.57;100.00
63607;BME280;71992;52.478;-1.918;2024-01-25T00:16:33;101014.16;;;5.51;100.00
63607;BME280;71992;52.478;-1.918;2024-01-25T00:19:05;100994.78;;;5.49;100.00
63607;BME280;71992;52.478;-1.918;2024-01-25T00:21:41;101001.84;;;5.50;100.00
63607;BME280;71992;52.478;-1.918;2024-01-25T00:24:13;101000.91;;;5.52;100.00
63607;BME280;71992;52.478;-1.918;2024-01-25T00:26:43;100992.97;;;5.51;100.00
63607;BME280;71992;52.478;-1.918;2024-01-25T00:29:15;101002.72;;;5.50;100.00
63607;BME280;71992;52.478;-1.918;2024-01-25T00:31:48;100993.00;;;5.49;100.00
63607;BME280;71992;52.478;-1.918;2024-01-25T00:34:21;100998.31;;;5.49;100.00
63607;BME280;71992;52.478;-1.918;2024-01-25T00:36:56;100996.53;;;5.50;100.00
63607;BME280;71992;52.478;-1.918;2024-01-25T00:39:27;100997.44;;;5.49;100.00
63607;BME280;71992;52.478;-1.918;2024-01-25T00:42:05;100997.53;;;5.46;100.00
63607;BME280;71992;52.478;-1.918;2024-01-25T00:44:37;100995.81;;;5.43;100.00
63607;BME280;71992;52.478;-1.918;2024-01-25T00:47:11;101004.63;;;5.43;100.00
63607;BME280;71992;52.478;-1.918;2024-01-25T00:49:42;101013.44;;;5.44;100.00
63607;BME280;71992;52.478;-1.918;2024-01-25T00:52:16;100998.41;;;5.44;100.00
63607;BME280;71992;52.478;-1.918;2024-01-25T00:54:48;100989.63;;;5.42;100.00
63607;BME280;71992;52.478;-1.918;2024-01-25T00:57:19;100992.34;;;5.41;100.00
63607;BME280;71992;52.478;-1.918;2024-01-25T00:59:53;100983.50;;;5.40;100.00
63607;BME280;71992;52.478;-1.918;2024-01-25T01:02:27;100983.56;;;5.39;100.00
63607;BME280;71992;52.478;-1.918;2024-01-25T01:05:00;100976.47;;;5.39;100.00
63607;BME280;71992;52.478;-1.918;2024-01-25T01:07:32;100964.09;;;5.40;100.00
63607;BME280;71992;52.478;-1.918;2024-01-25T01:10:05;100955.25;;;5.41;100.00
63607;BME280;71992;52.478;-1.918;2024-01-25T01:12:36;100962.38;;;5.39;100.00
63607;BME280;71992;52.478;-1.918;2024-01-25T01:15:08;100963.25;;;5.38;100.00
63607;BME280;71992;52.478;-1.918;2024-01-25T01:17:42;100953.56;;;5.37;100.00
63607;BME280;71992;52.478;-1.918;2024-01-25T01:20:13;100958.00;;;5.36;100.00
63607;BME280;71992;52.478;-1.918;2024-01-25T01:22:44;100942.13;;;5.36;100.00
63607;BME280;71992;52.478;-1.918;2024-01-25T01:25:20;100957.97;;;5.38;100.00
63607;BME280;71992;52.478;-1.918;2024-01-25T01:27:51;100953.50;;;5.40;100.00
63607;BME280;71992;52.478;-1.918;2024-01-25T01:30:22;100950.84;;;5.40;100.00
63607;BME280;71992;52.478;-1.918;2024-01-25T01:32:55;100937.53;;;5.43;100.00
63607;BME280;71992;52.478;-1.918;2024-01-25T01:35:26;100934.84;;;5.44;100.00
63607;BME280;71992;52.478;-1.918;2024-01-25T01:37:57;100941.03;;;5.45;100.00
63607;BME280;71992;52.478;-1.918;2024-01-25T01:40:28;100935.72;;;5.45;100.00
63607;BME280;71992;52.478;-1.918;2024-01-25T01:42:59;100933.06;;;5.45;100.00
63607;BME280;71992;52.478;-1.918;2024-01-25T01:45:30;100926.84;;;5.46;100.00
63607;BME280;71992;52.478;-1.918;2024-01-25T01:48:04;100906.59;;;5.45;100.00
63607;BME280;71992;52.478;-1.918;2024-01-25T01:50:35;100886.41;;;5.39;100.00
63607;BME280;71992;52.478;-1.918;2024-01-25T01:53:06;100905.81;;;5.40;100.00
63607;BME280;71992;52.478;-1.918;2024-01-25T01:55:38;100890.97;;;5.34;100.00
63607;BME280;71992;52.478;-1.918;2024-01-25T01:58:10;100900.69;;;5.34;100.00
63607;BME280;71992;52.478;-1.918;2024-01-25T02:00:42;100901.56;;;5.34;100.00
63607;BME280;71992;52.478;-1.918;2024-01-25T02:03:16;100903.34;;;5.34;100.00
63607;BME280;71992;52.478;-1.918;2024-01-25T02:05:47;100906.91;;;5.31;100.00
63607;BME280;71992;52.478;-1.918;2024-01-25T02:08:19;100900.81;;;5.29;100.00
63607;BME280;71992;52.478;-1.918;2024-01-25T02:10:50;100892.88;;;5.29;100.00
63607;BME280;71992;52.478;-1.918;2024-01-25T02:13:21;100885.81;;;5.28;100.00
63607;BME280;71992;52.478;-1.918;2024-01-25T02:15:52;100876.19;;;5.24;100.00
63607;BME280;71992;52.478;-1.918;2024-01-25T02:18:26;100872.69;;;5.23;100.00
63607;BME280;71992;52.478;-1.918;2024-01-25T02:20:57;100861.13;;;5.26;100.00
63607;BME280;71992;52.478;-1.918;2024-01-25T02:23:38;100856.72;;;5.27;100.00
63607;BME280;71992;52.478;-1.918;2024-01-25T02:26:09;100861.13;;;5.28;100.00
63607;BME280;71992;52.478;-1.918;2024-01-25T02:28:40;100855.78;;;5.29;100.00
63607;BME280;71992;52.478;-1.918;2024-01-25T02:31:13;100851.28;;;5.31;100.00
63607;BME280;71992;52.478;-1.918;2024-01-25T02:33:44;100851.25;;;5.33;100.00
63607;BME280;71992;52.478;-1.918;2024-01-25T02:36:16;100853.00;;;5.34;100.00
63607;BME280;71992;52.478;-1.918;2024-01-25T02:38:49;100854.72;;;5.36;100.00
63607;BME280;71992;52.478;-1.918;2024-01-25T02:41:21;100850.25;;;5.38;100.00
63607;BME280;71992;52.478;-1.918;2024-01-25T02:43:51;100856.28;;;5.43;100.00
63607;BME280;71992;52.478;-1.918;2024-01-25T02:46:22;100862.34;;;5.47;100.00
63607;BME280;71992;52.478;-1.918;2024-01-25T02:48:53;100861.44;;;5.48;100.00
63607;BME280;71992;52.478;-1.918;2024-01-25T02:51:24;100841.09;;;5.50;100.00
63607;BME280;71992;52.478;-1.918;2024-01-25T02:53:58;100847.25;;;5.51;100.00
63607;BME280;71992;52.478;-1.918;2024-01-25T02:56:29;100837.50;;;5.51;100.00
63607;BME280;71992;52.478;-1.918;2024-01-25T02:59:03;100836.63;;;5.52;100.00
63607;BME280;71992;52.478;-1.918;2024-01-25T03:01:39;100818.06;;;5.52;100.00
63607;BME280;71992;52.478;-1.918;2024-01-25T03:04:11;100812.72;;;5.54;100.00
63607;BME280;71992;52.478;-1.918;2024-01-25T03:06:44;100801.16;;;5.56;100.00
63607;BME280;71992;52.478;-1.918;2024-01-25T03:09:17;100811.69;;;5.59;100.00
63607;BME280;71992;52.478;-1.918;2024-01-25T03:11:49;100807.25;;;5.60;100.00
63607;BME280;71992;52.478;-1.918;2024-01-25T03:14:19;100808.09;;;5.62;100.00
63607;BME280;71992;52.478;-1.918;2024-01-25T03:16:50;100796.50;;;5.66;100.00
63607;BME280;71992;52.478;-1.918;2024-01-25T03:19:24;100797.25;;;5.70;100.00
63607;BME280;71992;52.478;-1.918;2024-01-25T03:21:55;100791.00;;;5.72;100.00
63607;BME280;71992;52.478;-1.918;2024-01-25T03:24:28;100784.78;;;5.73;100.00
63607;BME280;71992;52.478;-1.918;2024-01-25T03:26:59;100777.66;;;5.75;100.00
63607;BME280;71992;52.478;-1.918;2024-01-25T03:29:30;100773.22;;;5.76;100.00
63607;BME280;71992;52.478;-1.918;2024-01-25T03:32:01;100770.47;;;5.79;100.00
63607;BME280;71992;52.478;-1.918;2024-01-25T03:34:32;100760.69;;;5.81;100.00
63607;BME280;71992;52.478;-1.918;2024-01-25T03:37:03;100751.00;;;5.81;100.00
63607;BME280;71992;52.478;-1.918;2024-01-25T03:39:37;100761.50;;;5.84;100.00
63607;BME280;71992;52.478;-1.918;2024-01-25T03:42:08;100744.72;;;5.84;100.00
63607;BME280;71992;52.478;-1.918;2024-01-25T03:44:38;100751.63;;;5.90;100.00
63607;BME280;71992;52.478;-1.918;2024-01-25T03:47:10;100748.00;;;5.92;100.00
63607;BME280;71992;52.478;-1.918;2024-01-25T03:49:40;100748.84;;;5.94;100.00
63607;BME280;71992;52.478;-1.918;2024-01-25T03:52:11;100740.81;;;5.97;100.00
63607;BME280;71992;52.478;-1.918;2024-01-25T03:54:45;100730.22;;;5.97;100.00
63607;BME280;71992;52.478;-1.918;2024-01-25T03:57:15;100737.22;;;6.00;100.00
63607;BME280;71992;52.478;-1.918;2024-01-25T03:59:47;100732.66;;;6.03;100.00
63607;BME280;71992;52.478;-1.918;2024-01-25T04:02:18;100732.59;;;6.06;100.00
63607;BME280;71992;52.478;-1.918;2024-01-25T04:04:48;100717.38;;;6.12;100.00
63607;BME280;71992;52.478;-1.918;2024-01-25T04:07:19;100706.66;;;6.15;100.00
63607;BME280;71992;52.478;-1.918;2024-01-25T04:09:53;100703.97;;;6.16;100.00
63607;BME280;71992;52.478;-1.918;2024-01-25T04:12:23;100710.94;;;6.20;100.00
63607;BME280;71992;52.478;-1.918;2024-01-25T04:14:54;100700.25;;;6.22;100.00
63607;BME280;71992;52.478;-1.918;2024-01-25T04:17:25;100705.47;;;6.25;100.00
63607;BME280;71992;52.478;-1.918;2024-01-25T04:19:56;100701.88;;;6.26;100.00
63607;BME280;71992;52.478;-1.918;2024-01-25T04:22:27;100692.13;;;6.26;100.00
63607;BME280;71992;52.478;-1.918;2024-01-25T04:25:00;100688.59;;;6.27;100.00
63607;BME280;71992;52.478;-1.918;2024-01-25T04:27:32;100684.16;;;6.28;100.00
63607;BME280;71992;52.478;-1.918;2024-01-25T04:30:03;100693.03;;;6.27;100.00
63607;BME280;71992;52.478;-1.918;2024-01-25T04:32:34;100701.84;;;6.27;100.00
63607;BME280;71992;52.478;-1.918;2024-01-25T04:35:06;100685.06;;;6.27;100.00
63607;BME280;71992;52.478;-1.918;2024-01-25T04:37:38;100684.16;;;6.28;100.00
63607;BME280;71992;52.478;-1.918;2024-01-25T04:40:11;100687.72;;;6.27;100.00
63607;BME280;71992;52.478;-1.918;2024-01-25T04:42:42;100695.69;;;6.27;100.00
63607;BME280;71992;52.478;-1.918;2024-01-25T04:45:13;100689.44;;;6.28;100.00
63607;BME280;71992;52.478;-1.918;2024-01-25T04:47:44;100685.00;;;6.28;100.00
63607;BME280;71992;52.478;-1.918;2024-01-25T04:50:15;100697.41;;;6.28;100.00
63607;BME280;71992;52.478;-1.918;2024-01-25T04:52:45;100686.84;;;6.26;100.00
63607;BME280;71992;52.478;-1.918;2024-01-25T04:55:19;100678.84;;;6.28;100.00
63607;BME280;71992;52.478;-1.918;2024-01-25T04:57:50;100670.91;;;6.26;100.00
63607;BME280;71992;52.478;-1.918;2024-01-25T05:00:21;100669.16;;;6.27;100.00
63607;BME280;71992;52.478;-1.918;2024-01-25T05:02:52;100662.88;;;6.30;100.00
63607;BME280;71992;52.478;-1.918;2024-01-25T05:05:23;100659.25;;;6.32;100.00
63607;BME280;71992;52.478;-1.918;2024-01-25T05:07:54;100664.56;;;6.32;100.00
63607;BME280;71992;52.478;-1.918;2024-01-25T05:10:28;100657.41;;;6.34;100.00
63607;BME280;71992;52.478;-1.918;2024-01-25T05:12:58;100661.78;;;6.35;100.00
63607;BME280;71992;52.478;-1.918;2024-01-25T05:15:29;100659.97;;;6.37;100.00
63607;BME280;71992;52.478;-1.918;2024-01-25T05:18:01;100655.50;;;6.38;100.00
63607;BME280;71992;52.478;-1.918;2024-01-25T05:20:32;100659.91;;;6.39;100.00
63607;BME280;71992;52.478;-1.918;2024-01-25T05:23:04;100660.78;;;6.39;100.00
63607;BME280;71992;52.478;-1.918;2024-01-25T05:25:38;100656.34;;;6.40;100.00
63607;BME280;71992;52.478;-1.918;2024-01-25T05:28:09;100653.69;;;6.40;100.00
63607;BME280;71992;52.478;-1.918;2024-01-25T05:30:47;100645.78;;;6.38;100.00
63607;BME280;71992;52.478;-1.918;2024-01-25T05:33:18;100636.94;;;6.38;100.00
63607;BME280;71992;52.478;-1.918;2024-01-25T05:35:48;100640.50;;;6.38;100.00
63607;BME280;71992;52.478;-1.918;2024-01-25T05:38:19;100628.97;;;6.38;100.00
63607;BME280;71992;52.478;-1.918;2024-01-25T05:40:53;100630.78;;;6.37;100.00
63607;BME280;71992;52.478;-1.918;2024-01-25T05:43:31;100626.41;;;6.36;100.00
63607;BME280;71992;52.478;-1.918;2024-01-25T05:46:02;100613.19;;;6.35;100.00
63607;BME280;71992;52.478;-1.918;2024-01-25T05:48:33;100608.81;;;6.34;100.00
63607;BME280;71992;52.478;-1.918;2024-01-25T05:51:04;100614.91;;;6.36;100.00
63607;BME280;71992;52.478;-1.918;2024-01-25T05:53:35;100597.22;;;6.36;100.00
63607;BME280;71992;52.478;-1.918;2024-01-25T05:56:09;100600.69;;;6.38;100.00
63607;BME280;71992;52.478;-1.918;2024-01-25T05:58:39;100589.31;;;6.35;100.00
63607;BME280;71992;52.478;-1.918;2024-01-25T06:01:11;100589.19;;;6.38;100.00
63607;BME280;71992;52.478;-1.918;2024-01-25T06:03:42;100584.78;;;6.38;100.00
63607;BME280;71992;52.478;-1.918;2024-01-25T06:06:13;100582.13;;;6.38;100.00
63607;BME280;71992;52.478;-1.918;2024-01-25T06:08:44;100587.34;;;6.40;100.00
63607;BME280;71992;52.478;-1.918;2024-01-25T06:11:17;100589.97;;;6.41;100.00
63607;BME280;71992;52.478;-1.918;2024-01-25T06:13:49;100592.56;;;6.43;100.00
63607;BME280;71992;52.478;-1.918;2024-01-25T06:16:20;100589.84;;;6.44;100.00
63607;BME280;71992;52.478;-1.918;2024-01-25T06:18:51;100589.78;;;6.46;100.00
63607;BME280;71992;52.478;-1.918;2024-01-25T06:21:22;100582.69;;;6.46;100.00
63607;BME280;71992;52.478;-1.918;2024-01-25T06:23:53;100579.06;;;6.49;100.00
63607;BME280;71992;52.478;-1.918;2024-01-25T06:26:27;100587.03;;;6.49;100.00
63607;BME280;71992;52.478;-1.918;2024-01-25T06:28:59;100580.81;;;6.50;100.00
63607;BME280;71992;52.478;-1.918;2024-01-25T06:31:31;100579.84;;;6.53;100.00
63607;BME280;71992;52.478;-1.918;2024-01-25T06:34:01;100578.91;;;6.54;100.00
63607;BME280;71992;52.478;-1.918;2024-01-25T06:36:32;100580.66;;;6.55;100.00
63607;BME280;71992;52.478;-1.918;2024-01-25T06:39:03;100575.28;;;6.56;100.00
63607;BME280;71992;52.478;-1.918;2024-01-25T06:41:37;100567.31;;;6.56;100.00
63607;BME280;71992;52.478;-1.918;2024-01-25T06:44:08;100566.34;;;6.59;100.00
63607;BME280;71992;52.478;-1.918;2024-01-25T06:46:39;100552.16;;;6.60;100.00
63607;BME280;71992;52.478;-1.918;2024-01-25T06:49:09;100561.97;;;6.58;100.00
63607;BME280;71992;52.478;-1.918;2024-01-25T06:51:40;100559.09;;;6.64;100.00
63607;BME280;71992;52.478;-1.918;2024-01-25T06:54:11;100556.44;;;6.64;100.00
63607;BME280;71992;52.478;-1.918;2024-01-25T06:56:44;100566.06;;;6.66;100.00
63607;BME280;71992;52.478;-1.918;2024-01-25T06:59:15;100556.38;;;6.65;100.00
63607;BME280;71992;52.478;-1.918;2024-01-25T07:01:46;100559.94;;;6.64;100.00
63607;BME280;71992;52.478;-1.918;2024-01-25T07:04:17;100550.19;;;6.65;100.00
63607;BME280;71992;52.478;-1.918;2024-01-25T07:06:47;100544.97;;;6.63;100.00
63607;BME280;71992;52.478;-1.918;2024-01-25T07:09:19;100542.22;;;6.65;100.00
63607;BME280;71992;52.478;-1.918;2024-01-25T07:11:52;100538.66;;;6.66;100.00
63607;BME280;71992;52.478;-1.918;2024-01-25T07:14:23;100541.31;;;6.66;100.00
63607;BME280;71992;52.478;-1.918;2024-01-25T07:16:54;100531.59;;;6.65;100.00
63607;BME280;71992;52.478;-1.918;2024-01-25T07:19:25;100532.50;;;6.65;100.00
63607;BME280;71992;52.478;-1.918;2024-01-25T07:21:56;100527.19;;;6.65;100.00
63607;BME280;71992;52.478;-1.918;2024-01-25T07:24:26;100536.06;;;6.64;100.00
63607;BME280;71992;52.478;-1.918;2024-01-25T07:27:00;100523.66;;;6.65;100.00
63607;BME280;71992;52.478;-1.918;2024-01-25T07:29:50;100529.84;;;6.65;100.00
63607;BME280;71992;52.478;-1.918;2024-01-25T07:32:21;100527.13;;;6.67;100.00
63607;BME280;71992;52.478;-1.918;2024-01-25T07:34:52;100514.69;;;6.67;100.00
63607;BME280;71992;52.478;-1.918;2024-01-25T07:37:23;100521.75;;;6.68;100.00
63607;BME280;71992;52.478;-1.918;2024-01-25T07:39:54;100532.34;;;6.70;100.00
63607;BME280;71992;52.478;-1.918;2024-01-25T07:42:29;100532.22;;;6.73;100.00
63607;BME280;71992;52.478;-1.918;2024-01-25T07:45:03;100522.50;;;6.72;100.00
63607;BME280;71992;52.478;-1.918;2024-01-25T07:47:35;100525.88;;;6.77;100.00
63607;BME280;71992;52.478;-1.918;2024-01-25T07:50:06;100521.38;;;6.79;100.00
63607;BME280;71992;52.478;-1.918;2024-01-25T07:52:37;100518.63;;;6.81;100.00
63607;BME280;71992;52.478;-1.918;2024-01-25T07:55:08;100518.59;;;6.82;100.00
63607;BME280;71992;52.478;-1.918;2024-01-25T07:57:41;100517.59;;;6.85;100.00
63607;BME280;71992;52.478;-1.918;2024-01-25T08:00:13;100514.91;;;6.86;100.00
63607;BME280;71992;52.478;-1.918;2024-01-25T08:02:44;100516.56;;;6.89;100.00
63607;BME280;71992;52.478;-1.918;2024-01-25T08:05:15;100508.59;;;6.89;100.00
63607;BME280;71992;52.478;-1.918;2024-01-25T08:07:45;100504.97;;;6.92;100.00
63607;BME280;71992;52.478;-1.918;2024-01-25T08:10:17;100499.66;;;6.92;100.00
63607;BME280;71992;52.478;-1.918;2024-01-25T08:12:50;100501.28;;;6.96;100.00
63607;BME280;71992;52.478;-1.918;2024-01-25T08:15:21;100497.66;;;6.97;100.00
63607;BME280;71992;52.478;-1.918;2024-01-25T08:17:52;100486.16;;;6.98;100.00
63607;BME280;71992;52.478;-1.918;2024-01-25T08:20:23;100493.06;;;7.02;100.00
63607;BME280;71992;52.478;-1.918;2024-01-25T08:22:54;100493.84;;;7.04;100.00
63607;BME280;71992;52.478;-1.918;2024-01-25T08:25:25;100486.69;;;7.06;100.00
63607;BME280;71992;52.478;-1.918;2024-01-25T08:27:59;100477.72;;;7.08;100.00
63607;BME280;71992;52.478;-1.918;2024-01-25T08:30:29;100484.75;;;7.11;100.00
63607;BME280;71992;52.478;-1.918;2024-01-25T08:33:00;100483.66;;;7.15;100.00
63607;BME280;71992;52.478;-1.918;2024-01-25T08:35:31;100489.78;;;7.17;100.00
63607;BME280;71992;52.478;-1.918;2024-01-25T08:38:02;100478.25;;;7.18;100.00
63607;BME280;71992;52.478;-1.918;2024-01-25T08:40:34;100488.75;;;7.21;100.00
63607;BME280;71992;52.478;-1.918;2024-01-25T08:43:10;100488.63;;;7.24;100.00
63607;BME280;71992;52.478;-1.918;2024-01-25T08:45:41;100484.25;;;7.23;100.00
63607;BME280;71992;52.478;-1.918;2024-01-25T08:48:11;100484.91;;;7.28;100.00
63607;BME280;71992;52.478;-1.918;2024-01-25T08:50:43;100491.88;;;7.31;100.00
63607;BME280;71992;52.478;-1.918;2024-01-25T08:53:13;100489.13;;;7.34;100.00
63607;BME280;71992;52.478;-1.918;2024-01-25T08:55:44;100479.31;;;7.36;100.00
63607;BME280;71992;52.478;-1.918;2024-01-25T08:58:18;100482.69;;;7.40;100.00
63607;BME280;71992;52.478;-1.918;2024-01-25T09:00:49;100469.31;;;7.43;100.00
63607;BME280;71992;52.478;-1.918;2024-01-25T09:03:20;100464.69;;;7.46;100.00
63607;BME280;71992;52.478;-1.918;2024-01-25T09:05:50;100471.63;;;7.50;100.00
63607;BME280;71992;52.478;-1.918;2024-01-25T09:08:21;100455.53;;;7.53;100.00
63607;BME280;71992;52.478;-1.918;2024-01-25T09:10:52;100458.00;;;7.58;100.00
63607;BME280;71992;52.478;-1.918;2024-01-25T09:13:25;100448.97;;;7.62;100.00
63607;BME280;71992;52.478;-1.918;2024-01-25T09:15:56;100447.13;;;7.64;100.00
63607;BME280;71992;52.478;-1.918;2024-01-25T09:18:27;100448.72;;;7.68;100.00
63607;BME280;71992;52.478;-1.918;2024-01-25T09:20:58;100451.25;;;7.71;100.00
63607;BME280;71992;52.478;-1.918;2024-01-25T09:23:28;100435.66;;;7.84;100.00
63607;BME280;71992;52.478;-1.918;2024-01-25T09:26:00;100445.69;;;7.98;100.00
63607;BME280;71992;52.478;-1.918;2024-01-25T09:28:34;100447.38;;;8.20;100.00
63607;BME280;71992;52.478;-1.918;2024-01-25T09:31:05;100443.31;;;8.31;100.00
63607;BME280;71992;52.478;-1.918;2024-01-25T09:33:36;100443.44;;;8.49;100.00
63607;BME280;71992;52.478;-1.918;2024-01-25T09:36:09;100449.22;;;8.59;100.00
63607;BME280;71992;52.478;-1.918;2024-01-25T09:38:39;100444.81;;;8.57;100.00
63607;BME280;71992;52.478;-1.918;2024-01-25T09:41:10;100453.59;;;8.60;100.00
63607;BME280;71992;52.478;-1.918;2024-01-25T09:43:44;100450.94;;;8.60;100.00
63607;BME280;71992;52.478;-1.918;2024-01-25T09:46:16;100450.88;;;8.61;100.00
63607;BME280;71992;52.478;-1.918;2024-01-25T09:48:47;100440.88;;;8.66;100.00
63607;BME280;71992;52.478;-1.918;2024-01-25T09:51:18;100443.38;;;8.69;100.00
63607;BME280;71992;52.478;-1.918;2024-01-25T09:53:49;100437.19;;;8.69;100.00
63607;BME280;71992;52.478;-1.918;2024-01-25T09:56:21;100446.03;;;8.69;100.00
63607;BME280;71992;52.478;-1.918;2024-01-25T09:58:55;100449.22;;;8.77;100.00
63607;BME280;71992;52.478;-1.918;2024-01-25T10:01:26;100438.28;;;8.84;100.00
63607;BME280;71992;52.478;-1.918;2024-01-25T10:03:58;100438.19;;;8.85;100.00
63607;BME280;71992;52.478;-1.918;2024-01-25T10:06:28;100422.94;;;8.89;100.00
63607;BME280;71992;52.478;-1.918;2024-01-25T10:08:59;100424.31;;;8.97;100.00
63607;BME280;71992;52.478;-1.918;2024-01-25T10:11:31;100418.59;;;9.05;100.00
63607;BME280;71992;52.478;-1.918;2024-01-25T10:14:08;100437.25;;;9.05;100.00
63607;BME280;71992;52.478;-1.918;2024-01-25T10:16:39;100436.69;;;8.98;100.00
63607;BME280;71992;52.478;-1.918;2024-01-25T10:19:11;100420.91;;;8.94;100.00
63607;BME280;71992;52.478;-1.918;2024-01-25T10:21:44;100415.53;;;8.95;100.00
63607;BME280;71992;52.478;-1.918;2024-01-25T10:24:15;100413.50;;;9.01;100.00
63607;BME280;71992;52.478;-1.918;2024-01-25T10:26:48;100399.66;;;9.11;100.00
63607;BME280;71992;52.478;-1.918;2024-01-25T10:29:25;100395.13;;;9.13;100.00
63607;BME280;71992;52.478;-1.918;2024-01-25T10:31:58;100400.69;;;9.26;100.00
63607;BME280;71992;52.478;-1.918;2024-01-25T10:34:30;100414.00;;;9.26;100.00
63607;BME280;71992;52.478;-1.918;2024-01-25T10:37:02;100417.56;;;9.27;100.00
63607;BME280;71992;52.478;-1.918;2024-01-25T10:39:34;100414.00;;;9.26;100.00
63607;BME280;71992;52.478;-1.918;2024-01-25T10:42:05;100412.13;;;9.28;100.00
63607;BME280;71992;52.478;-1.918;2024-01-25T10:44:39;100403.06;;;9.32;100.00
63607;BME280;71992;52.478;-1.918;2024-01-25T10:47:10;100404.69;;;9.35;100.00
63607;BME280;71992;52.478;-1.918;2024-01-25T10:49:43;100399.22;;;9.38;100.00
63607;BME280;71992;52.478;-1.918;2024-01-25T10:52:17;100400.22;;;9.35;100.00
63607;BME280;71992;52.478;-1.918;2024-01-25T10:54:50;100395.22;;;9.29;100.00
63607;BME280;71992;52.478;-1.918;2024-01-25T10:57:21;100398.75;;;9.30;100.00
63607;BME280;71992;52.478;-1.918;2024-01-25T10:59:56;100395.13;;;9.31;100.00
63607;BME280;71992;52.478;-1.918;2024-01-25T11:02:27;100396.16;;;9.46;100.00
63607;BME280;71992;52.478;-1.918;2024-01-25T11:04:59;100386.28;;;9.48;100.00
63607;BME280;71992;52.478;-1.918;2024-01-25T11:07:41;100377.44;;;9.47;100.00
63607;BME280;71992;52.478;-1.918;2024-01-25T11:10:24;100388.09;;;9.47;100.00
63607;BME280;71992;52.478;-1.918;2024-01-25T11:13:00;100383.69;;;9.46;100.00
63607;BME280;71992;52.478;-1.918;2024-01-25T11:15:47;100385.19;;;9.52;100.00
63607;BME280;71992;52.478;-1.918;2024-01-25T11:18:19;100379.47;;;9.59;100.00
63607;BME280;71992;52.478;-1.918;2024-01-25T11:20:50;100360.25;;;9.70;100.00
63607;BME280;71992;52.478;-1.918;2024-01-25T11:23:21;100363.22;;;9.81;100.00
63607;BME280;71992;52.478;-1.918;2024-01-25T11:25:54;100366.91;;;9.79;100.00
63607;BME280;71992;52.478;-1.918;2024-01-25T11:28:25;100356.13;;;9.80;100.00
63607;BME280;71992;52.478;-1.918;2024-01-25T11:31:01;100369.25;;;9.85;100.00
63607;BME280;71992;52.478;-1.918;2024-01-25T11:33:34;100365.88;;;9.81;100.00
63607;BME280;71992;52.478;-1.918;2024-01-25T11:36:06;100368.31;;;9.86;100.00
63607;BME280;71992;52.478;-1.918;2024-01-25T11:38:37;100359.81;;;9.95;100.00
63607;BME280;71992;52.478;-1.918;2024-01-25T11:41:08;100363.41;;;9.94;100.00
63607;BME280;71992;52.478;-1.918;2024-01-25T11:43:41;100342.84;;;9.96;100.00
63607;BME280;71992;52.478;-1.918;2024-01-25T11:46:17;100343.56;;;10.00;100.00
63607;BME280;71992;52.478;-1.918;2024-01-25T11:48:49;100338.22;;;10.00;100.00
63607;BME280;71992;52.478;-1.918;2024-01-25T11:51:21;100339.16;;;9.99;100.00
63607;BME280;71992;52.478;-1.918;2024-01-25T11:53:52;100334.69;;;9.99;100.00
63607;BME280;71992;52.478;-1.918;2024-01-25T11:56:27;100333.75;;;10.00;100.00
63607;BME280;71992;52.478;-1.918;2024-01-25T11:58:59;100335.31;;;10.04;100.00
63607;BME280;71992;52.478;-1.918;2024-01-25T12:01:35;100334.28;;;10.07;100.00
63607;BME280;71992;52.478;-1.918;2024-01-25T12:04:07;100325.56;;;10.03;100.00
63607;BME280;71992;52.478;-1.918;2024-01-25T12:06:41;100326.69;;;9.99;100.00
63607;BME280;71992;52.478;-1.918;2024-01-25T12:09:15;100322.16;;;10.01;100.00
63607;BME280;71992;52.478;-1.918;2024-01-25T12:11:49;100325.91;;;9.97;100.00
63607;BME280;71992;52.478;-1.918;2024-01-25T12:14:23;100328.59;;;9.97;100.00
63607;BME280;71992;52.478;-1.918;2024-01-25T12:16:57;100315.84;;;10.02;100.00
63607;BME280;71992;52.478;-1.918;2024-01-25T12:19:29;100322.22;;;10.00;100.00
63607;BME280;71992;52.478;-1.918;2024-01-25T12:22:00;100316.94;;;9.98;100.00
63607;BME280;71992;52.478;-1.918;2024-01-25T12:24:31;100319.94;;;9.92;100.00
63607;BME280;71992;52.478;-1.918;2024-01-25T12:27:03;100320.81;;;9.93;100.00
63607;BME280;71992;52.478;-1.918;2024-01-25T12:29:33;100308.78;;;9.86;100.00
63607;BME280;71992;52.478;-1.918;2024-01-25T12:32:07;100305.38;;;9.82;100.00
63607;BME280;71992;52.478;-1.918;2024-01-25T12:34:38;100299.03;;;9.85;100.00
63607;BME280;71992;52.478;-1.918;2024-01-25T12:37:09;100304.41;;;10.00;100.00
63607;BME280;71992;52.478;-1.918;2024-01-25T12:39:40;100298.13;;;10.01;100.00
63607;BME280;71992;52.478;-1.918;2024-01-25T12:42:11;100289.94;;;10.04;100.00
63607;BME280;71992;52.478;-1.918;2024-01-25T12:44:42;100283.41;;;10.10;100.00
63607;BME280;71992;52.478;-1.918;2024-01-25T12:47:20;100287.47;;;10.17;100.00
63607;BME280;71992;52.478;-1.918;2024-01-25T12:49:51;100282.88;;;10.19;100.00
63607;BME280;71992;52.478;-1.918;2024-01-25T12:52:22;100273.34;;;10.15;100.00
63607;BME280;71992;52.478;-1.918;2024-01-25T12:54:54;100262.16;;;10.24;100.00
63607;BME280;71992;52.478;-1.918;2024-01-25T12:57:25;100265.94;;;10.20;100.00
63607;BME280;71992;52.478;-1.918;2024-01-25T12:59:56;100261.97;;;10.28;100.00
63607;BME280;71992;52.478;-1.918;2024-01-25T13:02:30;100254.94;;;10.27;100.00
63607;BME280;71992;52.478;-1.918;2024-01-25T13:05:00;100254.69;;;10.31;100.00